createdAt,value
2018-12-30T00:00:20.794Z,0.00
2018-12-30T00:01:20.761Z,0.00
2018-12-30T00:02:20.729Z,0.00
2018-12-30T00:03:20.696Z,0.00
2018-12-30T00:04:20.664Z,0.00
2018-12-30T00:05:20.635Z,0.00
2018-12-30T00:06:20.601Z,0.00
2018-12-30T00:07:20.571Z,0.00
2018-12-30T00:08:20.537Z,0.00
2018-12-30T00:09:20.503Z,0.00
2018-12-30T00:10:20.472Z,0.00
2018-12-30T00:11:20.438Z,0.00
2018-12-30T00:12:20.409Z,0.00
2018-12-30T00:13:20.374Z,0.00
2018-12-30T00:14:20.344Z,0.00
2018-12-30T00:15:20.313Z,0.00
2018-12-30T00:16:20.279Z,0.00
2018-12-30T00:17:20.247Z,0.00
2018-12-30T00:18:20.214Z,0.00
2018-12-30T00:19:20.182Z,0.00
2018-12-30T00:20:20.149Z,0.00
2018-12-30T00:21:20.118Z,0.00
2018-12-30T00:22:20.088Z,0.00
2018-12-30T00:23:20.053Z,0.00
2018-12-30T00:24:20.023Z,0.00
2018-12-30T00:25:19.990Z,0.00
2018-12-30T00:26:19.958Z,0.00
2018-12-30T00:27:19.924Z,0.00
2018-12-30T00:28:19.892Z,0.00
2018-12-30T00:29:19.860Z,0.00
2018-12-30T00:30:19.828Z,0.00
2018-12-30T00:31:19.839Z,0.00
2018-12-30T00:32:19.765Z,0.00
2018-12-30T00:33:19.734Z,0.00
2018-12-30T00:34:19.706Z,0.00
2018-12-30T00:35:19.668Z,0.00
2018-12-30T00:36:19.634Z,0.00
2018-12-30T00:37:19.602Z,0.00
2018-12-30T00:38:19.570Z,0.00
2018-12-30T00:39:19.537Z,0.00
2018-12-30T00:40:19.508Z,0.00
2018-12-30T00:41:19.474Z,0.00
2018-12-30T00:42:19.442Z,0.00
2018-12-30T00:43:19.409Z,0.00
2018-12-30T00:44:19.376Z,0.00
2018-12-30T00:45:19.344Z,0.00
2018-12-30T00:46:19.313Z,0.00
2018-12-30T00:47:19.281Z,0.00
2018-12-30T00:48:19.249Z,0.00
2018-12-30T00:49:19.215Z,0.00
2018-12-30T00:50:19.184Z,0.00
2018-12-30T00:51:19.153Z,0.00
2018-12-30T00:52:19.119Z,0.00
2018-12-30T00:53:19.086Z,0.00
2018-12-30T00:54:19.057Z,0.00
2018-12-30T00:55:19.026Z,0.00
2018-12-30T00:56:18.990Z,0.00
2018-12-30T00:57:18.960Z,0.00
2018-12-30T00:58:18.927Z,0.00
2018-12-30T00:59:18.895Z,0.00
2018-12-30T01:00:18.863Z,0.00
2018-12-30T01:01:18.832Z,0.00
2018-12-30T01:02:18.799Z,0.00
2018-12-30T01:03:18.763Z,0.00
2018-12-30T01:04:18.736Z,0.00
2018-12-30T01:05:18.701Z,0.00
2018-12-30T01:06:18.670Z,0.00
2018-12-30T01:07:18.636Z,0.00
2018-12-30T01:08:18.605Z,0.00
2018-12-30T01:09:18.573Z,0.00
2018-12-30T01:10:18.543Z,0.00
2018-12-30T01:11:18.510Z,0.00
2018-12-30T01:12:18.475Z,0.00
2018-12-30T01:13:18.445Z,0.00
2018-12-30T01:14:18.412Z,0.00
2018-12-30T01:15:18.380Z,0.00
2018-12-30T01:16:18.349Z,0.00
2018-12-30T01:17:18.315Z,0.00
2018-12-30T01:18:18.283Z,0.00
2018-12-30T01:19:18.251Z,0.00
2018-12-30T01:20:18.219Z,0.00
2018-12-30T01:21:24.970Z,0.00
2018-12-30T01:22:18.154Z,0.00
2018-12-30T01:23:18.123Z,0.00
2018-12-30T01:24:18.091Z,0.00
2018-12-30T01:25:18.059Z,0.00
2018-12-30T01:26:18.031Z,0.00
2018-12-30T01:27:17.995Z,0.00
2018-12-30T01:28:17.962Z,0.00
2018-12-30T01:29:17.930Z,0.00
2018-12-30T01:30:17.898Z,0.00
2018-12-30T01:31:17.866Z,0.00
2018-12-30T01:32:17.835Z,0.00
2018-12-30T01:33:17.806Z,0.00
2018-12-30T01:34:17.770Z,0.00
2018-12-30T01:35:17.738Z,0.00
2018-12-30T01:36:17.704Z,0.00
2018-12-30T01:37:17.673Z,0.00
2018-12-30T01:38:17.642Z,0.00
2018-12-30T01:39:17.610Z,0.00
2018-12-30T01:40:17.580Z,0.00
2018-12-30T01:41:17.545Z,0.00
2018-12-30T01:42:17.512Z,0.00
2018-12-30T01:43:17.481Z,0.00
2018-12-30T01:44:17.449Z,0.00
2018-12-30T01:45:17.418Z,0.00
2018-12-30T01:46:17.387Z,0.00
2018-12-30T01:47:17.353Z,0.00
2018-12-30T01:48:17.321Z,0.00
2018-12-30T01:49:17.291Z,0.00
2018-12-30T01:50:17.262Z,0.00
2018-12-30T01:51:17.226Z,0.00
2018-12-30T01:52:17.193Z,0.00
2018-12-30T01:53:17.163Z,0.00
2018-12-30T01:54:17.131Z,0.00
2018-12-30T01:55:17.098Z,0.00
2018-12-30T01:56:17.065Z,0.00
2018-12-30T01:57:17.034Z,0.00
2018-12-30T01:58:17.001Z,0.00
2018-12-30T01:59:16.969Z,0.00
2018-12-30T02:00:16.937Z,0.00
2018-12-30T02:01:16.907Z,0.00
2018-12-30T02:02:16.876Z,0.00
2018-12-30T02:03:16.843Z,0.00
2018-12-30T02:04:16.810Z,0.00
2018-12-30T02:05:16.778Z,0.00
2018-12-30T02:06:16.747Z,0.00
2018-12-30T02:07:16.713Z,0.00
2018-12-30T02:08:16.682Z,0.00
2018-12-30T02:09:16.650Z,0.00
2018-12-30T02:10:16.618Z,0.00
2018-12-30T02:11:16.586Z,0.00
2018-12-30T02:12:16.553Z,0.00
2018-12-30T02:13:16.522Z,0.00
2018-12-30T02:14:16.490Z,0.00
2018-12-30T02:15:16.458Z,0.00
2018-12-30T02:16:16.426Z,0.00
2018-12-30T02:17:16.394Z,0.00
2018-12-30T02:18:16.364Z,0.00
2018-12-30T02:19:16.329Z,0.00
2018-12-30T02:20:16.298Z,0.00
2018-12-30T02:21:16.265Z,0.00
2018-12-30T02:22:16.235Z,0.00
2018-12-30T02:23:16.201Z,0.00
2018-12-30T02:24:16.169Z,0.00
2018-12-30T02:25:16.136Z,0.00
2018-12-30T02:26:16.106Z,0.00
2018-12-30T02:27:16.072Z,0.00
2018-12-30T02:28:16.040Z,0.00
2018-12-30T02:29:16.008Z,0.00
2018-12-30T02:30:15.981Z,0.00
2018-12-30T02:31:15.944Z,0.00
2018-12-30T02:32:15.912Z,0.00
2018-12-30T02:33:15.883Z,0.00
2018-12-30T02:34:15.848Z,0.00
2018-12-30T02:35:15.820Z,0.00
2018-12-30T02:36:15.783Z,0.00
2018-12-30T02:37:15.755Z,0.00
2018-12-30T02:38:15.720Z,0.00
2018-12-30T02:39:15.686Z,0.00
2018-12-30T02:40:15.655Z,0.00
2018-12-30T02:41:15.622Z,0.00
2018-12-30T02:42:15.593Z,0.00
2018-12-30T02:43:15.558Z,0.00
2018-12-30T02:44:15.526Z,0.00
2018-12-30T02:45:15.497Z,0.00
2018-12-30T02:46:15.464Z,0.00
2018-12-30T02:47:15.465Z,0.00
2018-12-30T02:48:15.397Z,0.00
2018-12-30T02:49:15.371Z,0.00
2018-12-30T02:50:15.334Z,0.00
2018-12-30T02:51:15.300Z,0.00
2018-12-30T02:52:15.267Z,0.00
2018-12-30T02:53:15.236Z,0.00
2018-12-30T02:54:15.203Z,0.00
2018-12-30T02:55:15.171Z,0.00
2018-12-30T02:56:15.138Z,0.00
2018-12-30T02:57:15.107Z,0.00
2018-12-30T02:58:15.074Z,0.00
2018-12-30T02:59:15.041Z,0.00
2018-12-30T03:00:15.009Z,0.00
2018-12-30T03:01:14.975Z,0.00
2018-12-30T03:02:14.944Z,0.00
2018-12-30T03:03:14.911Z,0.00
2018-12-30T03:04:14.880Z,0.00
2018-12-30T03:05:14.846Z,0.00
2018-12-30T03:06:14.817Z,0.00
2018-12-30T03:07:14.780Z,0.00
2018-12-30T03:08:14.749Z,0.00
2018-12-30T03:09:14.715Z,0.00
2018-12-30T03:10:14.682Z,0.00
2018-12-30T03:11:14.649Z,0.00
2018-12-30T03:12:14.618Z,0.00
2018-12-30T03:13:14.585Z,0.00
2018-12-30T03:14:14.552Z,0.00
2018-12-30T03:15:14.519Z,0.00
2018-12-30T03:16:14.487Z,0.00
2018-12-30T03:17:14.453Z,0.00
2018-12-30T03:18:14.423Z,0.00
2018-12-30T03:19:14.388Z,0.00
2018-12-30T03:20:14.356Z,0.00
2018-12-30T03:21:14.324Z,0.00
2018-12-30T03:22:14.290Z,0.00
2018-12-30T03:23:14.258Z,0.00
2018-12-30T03:24:14.224Z,0.00
2018-12-30T03:25:14.198Z,0.00
2018-12-30T03:26:14.158Z,0.00
2018-12-30T03:27:14.126Z,0.00
2018-12-30T03:28:14.097Z,0.00
2018-12-30T03:29:14.060Z,0.00
2018-12-30T03:30:14.030Z,0.00
2018-12-30T03:31:13.998Z,0.00
2018-12-30T03:32:13.963Z,0.00
2018-12-30T03:33:13.930Z,0.00
2018-12-30T03:34:13.899Z,0.00
2018-12-30T03:35:13.864Z,0.00
2018-12-30T03:36:13.831Z,0.00
2018-12-30T03:37:13.798Z,0.00
2018-12-30T03:38:13.767Z,0.00
2018-12-30T03:39:13.737Z,0.00
2018-12-30T03:40:13.699Z,0.00
2018-12-30T03:41:13.666Z,0.00
2018-12-30T03:42:13.632Z,0.00
2018-12-30T03:43:13.600Z,0.00
2018-12-30T03:44:13.568Z,0.00
2018-12-30T03:45:13.535Z,0.00
2018-12-30T03:46:13.507Z,0.00
2018-12-30T03:47:13.468Z,0.00
2018-12-30T03:48:13.438Z,0.00
2018-12-30T03:49:13.402Z,0.00
2018-12-30T03:50:13.371Z,0.00
2018-12-30T03:51:13.335Z,0.00
2018-12-30T03:52:13.304Z,0.00
2018-12-30T03:53:13.270Z,0.00
2018-12-30T03:54:13.255Z,0.00
2018-12-30T03:55:13.203Z,0.00
2018-12-30T03:56:13.169Z,0.00
2018-12-30T03:57:13.137Z,0.00
2018-12-30T03:58:13.104Z,0.00
2018-12-30T03:59:13.071Z,0.00
2018-12-30T04:00:13.038Z,0.00
2018-12-30T04:01:13.008Z,0.00
2018-12-30T04:02:12.972Z,0.00
2018-12-30T04:03:12.938Z,0.00
2018-12-30T04:04:12.904Z,0.00
2018-12-30T04:05:12.871Z,0.00
2018-12-30T04:06:12.841Z,0.00
2018-12-30T04:07:12.804Z,0.00
2018-12-30T04:08:12.773Z,0.00
2018-12-30T04:09:12.738Z,0.00
2018-12-30T04:10:12.705Z,0.00
2018-12-30T04:11:12.671Z,0.00
2018-12-30T04:12:12.638Z,0.00
2018-12-30T04:13:12.605Z,0.00
2018-12-30T04:14:12.572Z,0.00
2018-12-30T04:15:12.537Z,0.00
2018-12-30T04:16:12.505Z,0.00
2018-12-30T04:17:12.471Z,0.00
2018-12-30T04:18:12.440Z,0.00
2018-12-30T04:19:12.406Z,0.00
2018-12-30T04:20:12.372Z,0.00
2018-12-30T04:21:12.345Z,0.00
2018-12-30T04:22:16.828Z,0.00
2018-12-30T04:23:12.273Z,0.00
2018-12-30T04:24:12.241Z,0.00
2018-12-30T04:25:12.207Z,0.00
2018-12-30T04:26:12.173Z,0.00
2018-12-30T04:27:12.139Z,0.00
2018-12-30T04:28:12.104Z,0.00
2018-12-30T04:29:12.079Z,0.00
2018-12-30T04:30:12.040Z,0.00
2018-12-30T04:31:12.004Z,0.00
2018-12-30T04:32:11.972Z,0.00
2018-12-30T04:33:11.944Z,0.00
2018-12-30T04:34:11.907Z,0.00
2018-12-30T04:35:11.872Z,0.00
2018-12-30T04:36:11.837Z,0.00
2018-12-30T04:37:11.805Z,0.00
2018-12-30T04:38:11.773Z,0.00
2018-12-30T04:39:11.745Z,0.00
2018-12-30T04:40:11.703Z,0.00
2018-12-30T04:41:11.673Z,0.00
2018-12-30T04:42:11.637Z,0.00
2018-12-30T04:43:11.604Z,0.00
2018-12-30T04:44:11.572Z,0.00
2018-12-30T04:45:11.538Z,0.00
2018-12-30T04:46:11.504Z,0.00
2018-12-30T04:47:11.485Z,0.00
2018-12-30T04:48:11.436Z,0.00
2018-12-30T04:49:11.403Z,0.00
2018-12-30T04:50:11.370Z,0.00
2018-12-30T04:51:11.335Z,0.00
2018-12-30T04:52:11.303Z,0.00
2018-12-30T04:53:11.269Z,0.00
2018-12-30T04:54:11.235Z,0.00
2018-12-30T04:55:11.199Z,0.00
2018-12-30T04:56:11.166Z,0.00
2018-12-30T04:57:11.132Z,0.00
2018-12-30T04:58:11.098Z,0.00
2018-12-30T04:59:11.063Z,0.00
2018-12-30T05:00:11.038Z,0.00
2018-12-30T05:01:10.996Z,0.00
2018-12-30T05:02:10.963Z,0.00
2018-12-30T05:03:10.928Z,0.00
2018-12-30T05:04:10.895Z,0.00
2018-12-30T05:05:10.861Z,0.00
2018-12-30T05:06:10.827Z,0.00
2018-12-30T05:07:10.793Z,0.00
2018-12-30T05:08:10.760Z,0.00
2018-12-30T05:09:10.724Z,0.00
2018-12-30T05:10:10.690Z,0.00
2018-12-30T05:11:10.655Z,0.00
2018-12-30T05:12:10.621Z,0.00
2018-12-30T05:13:10.588Z,0.00
2018-12-30T05:14:10.554Z,0.00
2018-12-30T05:15:10.601Z,0.00
2018-12-30T05:16:10.494Z,0.00
2018-12-30T05:17:10.450Z,0.00
2018-12-30T05:18:10.415Z,0.00
2018-12-30T05:19:10.382Z,0.00
2018-12-30T05:20:10.347Z,0.00
2018-12-30T05:21:10.313Z,0.00
2018-12-30T05:22:10.280Z,0.00
2018-12-30T05:23:10.244Z,0.00
2018-12-30T05:24:10.210Z,0.00
2018-12-30T05:25:10.178Z,0.00
2018-12-30T05:26:10.142Z,0.00
2018-12-30T05:27:10.107Z,0.00
2018-12-30T05:28:10.071Z,0.00
2018-12-30T05:29:10.040Z,0.00
2018-12-30T05:30:10.005Z,0.00
2018-12-30T05:31:09.971Z,0.00
2018-12-30T05:32:09.935Z,0.00
2018-12-30T05:33:09.900Z,0.00
2018-12-30T05:34:09.869Z,0.00
2018-12-30T05:35:09.834Z,0.00
2018-12-30T05:36:09.797Z,0.00
2018-12-30T05:37:09.762Z,0.00
2018-12-30T05:38:09.728Z,0.00
2018-12-30T05:39:09.694Z,0.00
2018-12-30T05:40:09.660Z,0.00
2018-12-30T05:41:09.625Z,0.00
2018-12-30T05:42:09.591Z,0.00
2018-12-30T05:43:09.556Z,0.00
2018-12-30T05:44:09.522Z,0.00
2018-12-30T05:45:09.488Z,0.00
2018-12-30T05:46:09.453Z,0.00
2018-12-30T05:47:09.417Z,0.00
2018-12-30T05:48:09.383Z,0.00
2018-12-30T05:49:09.353Z,0.00
2018-12-30T05:50:09.315Z,0.00
2018-12-30T05:51:09.280Z,0.00
2018-12-30T05:52:09.246Z,0.00
2018-12-30T05:53:09.211Z,0.00
2018-12-30T05:54:09.177Z,0.00
2018-12-30T05:55:09.141Z,0.00
2018-12-30T05:56:09.108Z,0.00
2018-12-30T05:57:09.072Z,0.00
2018-12-30T05:58:09.039Z,0.00
2018-12-30T05:59:09.003Z,0.00
2018-12-30T06:00:08.969Z,0.00
2018-12-30T06:01:08.935Z,0.00
2018-12-30T06:02:08.900Z,0.00
2018-12-30T06:03:08.865Z,0.00
2018-12-30T06:04:08.830Z,0.00
2018-12-30T06:05:08.870Z,0.00
2018-12-30T06:06:08.763Z,0.00
2018-12-30T06:07:08.726Z,0.00
2018-12-30T06:08:08.692Z,0.00
2018-12-30T06:09:08.657Z,0.00
2018-12-30T06:10:08.623Z,0.00
2018-12-30T06:11:08.589Z,0.00
2018-12-30T06:12:08.554Z,0.00
2018-12-30T06:13:08.520Z,0.00
2018-12-30T06:14:08.485Z,0.00
2018-12-30T06:15:08.450Z,0.00
2018-12-30T06:16:08.415Z,0.00
2018-12-30T06:17:08.383Z,0.00
2018-12-30T06:18:08.348Z,0.00
2018-12-30T06:19:08.312Z,0.00
2018-12-30T06:20:08.278Z,0.00
2018-12-30T06:21:08.244Z,0.00
2018-12-30T06:22:08.210Z,0.00
2018-12-30T06:23:08.174Z,0.00
2018-12-30T06:24:08.139Z,0.00
2018-12-30T06:25:08.107Z,0.00
2018-12-30T06:26:08.070Z,0.00
2018-12-30T06:27:08.068Z,0.00
2018-12-30T06:28:08.002Z,0.00
2018-12-30T06:29:07.966Z,0.00
2018-12-30T06:30:07.932Z,0.00
2018-12-30T06:31:07.900Z,0.00
2018-12-30T06:32:07.866Z,0.00
2018-12-30T06:33:07.830Z,0.00
2018-12-30T06:34:07.797Z,0.00
2018-12-30T06:35:07.760Z,0.00
2018-12-30T06:36:07.732Z,0.00
2018-12-30T06:37:07.692Z,0.00
2018-12-30T06:38:07.657Z,0.00
2018-12-30T06:39:07.622Z,0.00
2018-12-30T06:40:11.252Z,0.00
2018-12-30T06:41:07.552Z,0.00
2018-12-30T06:42:07.520Z,0.00
2018-12-30T06:43:07.483Z,0.00
2018-12-30T06:44:07.449Z,4.00
2018-12-30T06:45:07.418Z,4.00
2018-12-30T06:46:07.380Z,0.00
2018-12-30T06:47:07.345Z,0.00
2018-12-30T06:48:07.310Z,4.00
2018-12-30T06:49:07.281Z,4.00
2018-12-30T06:50:07.241Z,4.00
2018-12-30T06:51:07.208Z,4.00
2018-12-30T06:52:07.172Z,8.00
2018-12-30T06:53:07.139Z,8.00
2018-12-30T06:54:07.104Z,8.00
2018-12-30T06:55:07.069Z,8.00
2018-12-30T06:56:07.035Z,12.00
2018-12-30T06:57:07.001Z,12.00
2018-12-30T06:58:06.966Z,16.00
2018-12-30T06:59:06.931Z,20.00
2018-12-30T07:00:06.896Z,24.00
2018-12-30T07:01:06.863Z,24.00
2018-12-30T07:02:06.827Z,28.00
2018-12-30T07:03:06.793Z,32.00
2018-12-30T07:04:06.759Z,36.00
2018-12-30T07:05:06.725Z,44.00
2018-12-30T07:06:06.690Z,48.00
2018-12-30T07:07:06.653Z,56.00
2018-12-30T07:08:06.620Z,68.00
2018-12-30T07:09:06.587Z,76.00
2018-12-30T07:10:06.552Z,84.00
2018-12-30T07:11:06.519Z,96.00
2018-12-30T07:12:06.483Z,108.00
2018-12-30T07:13:06.449Z,124.00
2018-12-30T07:14:06.414Z,140.00
2018-12-30T07:15:06.382Z,156.00
2018-12-30T07:16:06.345Z,172.00
2018-12-30T07:17:06.311Z,188.00
2018-12-30T07:18:06.279Z,208.00
2018-12-30T07:19:06.241Z,224.00
2018-12-30T07:20:06.207Z,248.00
2018-12-30T07:21:06.175Z,268.00
2018-12-30T07:22:06.139Z,292.00
2018-12-30T07:23:06.320Z,320.00
2018-12-30T07:24:06.071Z,352.00
2018-12-30T07:25:06.036Z,384.00
2018-12-30T07:26:06.002Z,412.00
2018-12-30T07:27:05.966Z,444.00
2018-12-30T07:28:05.931Z,472.00
2018-12-30T07:29:05.897Z,508.00
2018-12-30T07:30:05.864Z,544.00
2018-12-30T07:31:05.829Z,580.00
2018-12-30T07:32:05.795Z,616.00
2018-12-30T07:33:05.763Z,652.00
2018-12-30T07:34:05.727Z,688.00
2018-12-30T07:35:05.691Z,732.00
2018-12-30T07:36:05.658Z,768.00
2018-12-30T07:37:05.627Z,812.00
2018-12-30T07:38:05.590Z,860.00
2018-12-30T07:39:05.554Z,904.00
2018-12-30T07:40:05.522Z,952.00
2018-12-30T07:41:05.486Z,996.00
2018-12-30T07:42:05.453Z,1036.00
2018-12-30T07:43:05.420Z,1068.00
2018-12-30T07:44:05.384Z,1108.00
2018-12-30T07:45:05.350Z,1144.00
2018-12-30T07:46:05.316Z,1192.00
2018-12-30T07:47:05.283Z,1252.00
2018-12-30T07:48:05.247Z,1316.00
2018-12-30T07:49:05.213Z,1376.00
2018-12-30T07:50:05.179Z,1428.00
2018-12-30T07:51:05.146Z,1472.00
2018-12-30T07:52:05.109Z,1520.00
2018-12-30T07:53:05.075Z,1568.00
2018-12-30T07:54:05.042Z,1616.00
2018-12-30T07:55:05.008Z,1660.00
2018-12-30T07:56:04.974Z,1712.00
2018-12-30T07:57:04.937Z,1768.00
2018-12-30T07:58:04.912Z,1816.00
2018-12-30T07:59:04.871Z,1868.00
2018-12-30T08:00:04.837Z,1924.00
2018-12-30T08:01:04.802Z,1996.00
2018-12-30T08:02:04.769Z,2024.00
2018-12-30T08:03:04.734Z,2068.00
2018-12-30T08:04:04.701Z,2120.00
2018-12-30T08:05:04.666Z,2172.00
2018-12-30T08:06:04.636Z,2200.00
2018-12-30T08:07:04.600Z,2260.00
2018-12-30T08:08:04.564Z,2360.00
2018-12-30T08:09:04.530Z,2456.00
2018-12-30T08:10:04.496Z,2624.00
2018-12-30T08:11:04.465Z,2956.00
2018-12-30T08:12:04.516Z,3084.00
2018-12-30T08:13:04.394Z,3108.00
2018-12-30T08:14:04.361Z,3168.00
2018-12-30T08:15:04.326Z,2896.00
2018-12-30T08:16:04.300Z,2920.00
2018-12-30T08:17:04.261Z,3480.00
2018-12-30T08:18:04.225Z,4208.00
2018-12-30T08:19:04.192Z,4136.00
2018-12-30T08:20:04.158Z,3888.00
2018-12-30T08:21:04.123Z,3644.00
2018-12-30T08:22:04.090Z,3556.00
2018-12-30T08:23:04.055Z,4204.00
2018-12-30T08:24:04.022Z,4388.00
2018-12-30T08:25:03.988Z,4212.00
2018-12-30T08:26:03.958Z,4312.00
2018-12-30T08:27:03.922Z,4200.00
2018-12-30T08:28:03.887Z,4176.00
2018-12-30T08:29:03.854Z,4072.00
2018-12-30T08:30:03.821Z,4180.00
2018-12-30T08:31:03.787Z,4272.00
2018-12-30T08:32:03.755Z,3832.00
2018-12-30T08:33:03.721Z,4092.00
2018-12-30T08:34:03.689Z,4404.00
2018-12-30T08:35:03.654Z,4284.00
2018-12-30T08:36:03.620Z,4464.00
2018-12-30T08:37:03.589Z,4416.00
2018-12-30T08:38:03.557Z,4440.00
2018-12-30T08:39:03.521Z,4916.00
2018-12-30T08:40:03.488Z,5428.00
2018-12-30T08:41:03.458Z,5240.00
2018-12-30T08:42:03.426Z,5024.00
2018-12-30T08:43:03.388Z,4620.00
2018-12-30T08:44:03.353Z,4440.00
2018-12-30T08:45:03.408Z,4924.00
2018-12-30T08:46:03.292Z,4748.00
2018-12-30T08:47:03.256Z,3944.00
2018-12-30T08:48:03.221Z,3124.00
2018-12-30T08:49:03.190Z,3468.00
2018-12-30T08:50:03.158Z,3696.00
2018-12-30T08:51:03.122Z,4004.00
2018-12-30T08:52:03.093Z,4380.00
2018-12-30T08:53:03.057Z,4444.00
2018-12-30T08:54:03.024Z,4292.00
2018-12-30T08:55:02.994Z,4128.00
2018-12-30T08:56:02.958Z,3924.00
2018-12-30T08:57:02.924Z,4288.00
2018-12-30T08:58:02.893Z,3892.00
2018-12-30T08:59:02.858Z,3820.00
2018-12-30T09:00:02.825Z,3988.00
2018-12-30T09:01:03.043Z,4180.00
2018-12-30T09:02:02.761Z,4248.00
2018-12-30T09:03:02.727Z,4724.00
2018-12-30T09:04:02.694Z,5300.00
2018-12-30T09:05:02.663Z,5096.00
2018-12-30T09:06:02.631Z,5056.00
2018-12-30T09:07:02.596Z,4196.00
2018-12-30T09:08:02.563Z,3608.00
2018-12-30T09:09:02.530Z,3748.00
2018-12-30T09:10:02.499Z,4688.00
2018-12-30T09:11:02.468Z,5928.00
2018-12-30T09:12:02.433Z,6188.00
2018-12-30T09:13:02.400Z,5536.00
2018-12-30T09:14:02.367Z,4536.00
2018-12-30T09:15:02.335Z,4704.00
2018-12-30T09:16:02.301Z,5788.00
2018-12-30T09:17:02.269Z,5324.00
2018-12-30T09:18:03.926Z,5400.00
2018-12-30T09:19:02.204Z,6040.00
2018-12-30T09:20:02.171Z,6532.00
2018-12-30T09:21:02.140Z,5736.00
2018-12-30T09:22:02.105Z,4960.00
2018-12-30T09:23:02.072Z,4828.00
2018-12-30T09:24:02.042Z,5328.00
2018-12-30T09:25:02.009Z,4596.00
2018-12-30T09:26:01.975Z,4272.00
2018-12-30T09:27:01.943Z,4388.00
2018-12-30T09:28:01.912Z,4260.00
2018-12-30T09:29:01.883Z,4344.00
2018-12-30T09:30:01.846Z,4452.00
2018-12-30T09:31:01.812Z,4500.00
2018-12-30T09:32:01.780Z,5536.00
2018-12-30T09:33:01.747Z,5604.00
2018-12-30T09:34:01.717Z,5296.00
2018-12-30T09:35:01.686Z,4488.00
2018-12-30T09:36:01.651Z,4336.00
2018-12-30T09:37:01.618Z,3796.00
2018-12-30T09:38:01.586Z,3820.00
2018-12-30T09:39:01.552Z,5128.00
2018-12-30T09:40:01.527Z,5152.00
2018-12-30T09:41:01.489Z,5444.00
2018-12-30T09:42:01.455Z,6104.00
2018-12-30T09:43:01.428Z,5456.00
2018-12-30T09:44:01.390Z,5960.00
2018-12-30T09:45:01.359Z,6632.00
2018-12-30T09:46:01.326Z,6832.00
2018-12-30T09:47:01.299Z,6140.00
2018-12-30T09:48:01.263Z,5476.00
2018-12-30T09:49:01.229Z,6104.00
2018-12-30T09:50:01.198Z,7140.00
2018-12-30T09:51:01.163Z,7440.00
2018-12-30T09:52:01.130Z,9560.00
2018-12-30T09:53:01.099Z,7920.00
2018-12-30T09:54:01.070Z,8644.00
2018-12-30T09:55:01.032Z,9188.00
2018-12-30T09:56:01.000Z,9448.00
2018-12-30T09:57:00.969Z,10612.00
2018-12-30T09:58:00.936Z,10024.00
2018-12-30T09:59:00.905Z,10476.00
2018-12-30T10:00:00.871Z,9352.00
2018-12-30T10:01:00.844Z,9004.00
2018-12-30T10:02:00.807Z,7900.00
2018-12-30T10:03:00.778Z,7024.00
2018-12-30T10:04:00.745Z,6576.00
2018-12-30T10:05:00.711Z,5704.00
2018-12-30T10:06:00.678Z,5436.00
2018-12-30T10:07:00.647Z,6108.00
2018-12-30T10:08:00.614Z,6752.00
2018-12-30T10:09:00.584Z,6904.00
2018-12-30T10:10:00.552Z,6760.00
2018-12-30T10:11:00.518Z,7124.00
2018-12-30T10:12:00.486Z,7584.00
2018-12-30T10:13:00.456Z,9012.00
2018-12-30T10:14:00.422Z,8996.00
2018-12-30T10:15:09.001Z,9432.00
2018-12-30T10:16:00.363Z,8784.00
2018-12-30T10:17:00.326Z,8184.00
2018-12-30T10:18:00.295Z,6680.00
2018-12-30T10:19:00.260Z,6640.00
2018-12-30T10:20:00.228Z,7064.00
2018-12-30T10:21:00.197Z,7312.00
2018-12-30T10:22:00.164Z,7588.00
2018-12-30T10:23:00.133Z,8792.00
2018-12-30T10:24:00.100Z,9684.00
2018-12-30T10:25:00.160Z,9296.00
2018-12-30T10:26:00.040Z,9400.00
2018-12-30T10:27:00.003Z,9124.00
2018-12-30T10:27:59.972Z,8344.00
2018-12-30T10:28:59.941Z,9160.00
2018-12-30T10:29:59.908Z,9104.00
2018-12-30T10:30:59.875Z,8808.00
2018-12-30T10:31:59.844Z,7752.00
2018-12-30T10:32:59.811Z,8024.00
2018-12-30T10:33:59.779Z,8936.00
2018-12-30T10:34:59.746Z,9892.00
2018-12-30T10:35:59.715Z,10424.00
2018-12-30T10:36:59.683Z,10968.00
2018-12-30T10:37:59.653Z,9392.00
2018-12-30T10:38:59.619Z,9600.00
2018-12-30T10:39:59.587Z,10144.00
2018-12-30T10:40:59.555Z,9972.00
2018-12-30T10:41:59.523Z,9712.00
2018-12-30T10:42:59.490Z,8196.00
2018-12-30T10:43:59.459Z,9736.00
2018-12-30T10:44:59.428Z,9444.00
2018-12-30T10:45:59.396Z,9628.00
2018-12-30T10:46:59.364Z,11064.00
2018-12-30T10:47:59.332Z,9212.00
2018-12-30T10:48:59.301Z,8996.00
2018-12-30T10:49:59.268Z,10044.00
2018-12-30T10:50:59.236Z,10968.00
2018-12-30T10:51:59.204Z,9876.00
2018-12-30T10:52:59.172Z,10464.00
2018-12-30T10:54:00.748Z,9756.00
2018-12-30T10:54:59.107Z,7840.00
2018-12-30T10:55:59.076Z,11824.00
2018-12-30T10:56:59.069Z,11472.00
2018-12-30T10:57:59.013Z,10348.00
2018-12-30T10:58:58.982Z,10188.00
2018-12-30T10:59:58.950Z,9184.00
2018-12-30T11:00:58.931Z,9748.00
2018-12-30T11:01:58.889Z,10776.00
2018-12-30T11:02:58.854Z,9924.00
2018-12-30T11:03:58.823Z,11104.00
2018-12-30T11:04:58.793Z,11048.00
2018-12-30T11:05:58.762Z,9096.00
2018-12-30T11:06:58.730Z,8128.00
2018-12-30T11:07:58.698Z,7492.00
2018-12-30T11:08:58.668Z,7120.00
2018-12-30T11:09:58.636Z,10344.00
2018-12-30T11:10:58.610Z,10700.00
2018-12-30T11:11:58.574Z,8152.00
2018-12-30T11:12:58.543Z,8168.00
2018-12-30T11:13:58.512Z,9012.00
2018-12-30T11:14:58.479Z,9120.00
2018-12-30T11:15:58.448Z,8540.00
2018-12-30T11:16:58.417Z,9584.00
2018-12-30T11:17:58.385Z,7892.00
2018-12-30T11:18:58.353Z,7464.00
2018-12-30T11:19:58.324Z,9444.00
2018-12-30T11:20:58.291Z,9632.00
2018-12-30T11:21:58.259Z,8968.00
2018-12-30T11:22:58.228Z,8676.00
2018-12-30T11:23:58.197Z,11044.00
2018-12-30T11:24:58.165Z,10832.00
2018-12-30T11:25:58.133Z,10912.00
2018-12-30T11:26:58.102Z,10004.00
2018-12-30T11:27:58.074Z,9864.00
2018-12-30T11:28:58.037Z,9484.00
2018-12-30T11:29:58.007Z,9312.00
2018-12-30T11:30:57.974Z,10648.00
2018-12-30T11:31:57.942Z,10260.00
2018-12-30T11:32:57.912Z,10424.00
2018-12-30T11:33:57.881Z,11008.00
2018-12-30T11:34:57.846Z,10956.00
2018-12-30T11:35:57.815Z,11772.00
2018-12-30T11:36:57.783Z,9312.00
2018-12-30T11:37:57.753Z,8872.00
2018-12-30T11:38:57.721Z,10572.00
2018-12-30T11:39:57.689Z,11520.00
2018-12-30T11:40:57.657Z,10232.00
2018-12-30T11:41:57.626Z,10072.00
2018-12-30T11:42:57.592Z,10332.00
2018-12-30T11:43:57.561Z,9808.00
2018-12-30T11:44:57.531Z,9432.00
2018-12-30T11:45:57.500Z,9664.00
2018-12-30T11:46:57.466Z,8876.00
2018-12-30T11:47:57.435Z,10148.00
2018-12-30T11:48:57.403Z,11736.00
2018-12-30T11:49:57.373Z,10396.00
2018-12-30T11:50:57.342Z,10048.00
2018-12-30T11:51:57.309Z,9324.00
2018-12-30T11:52:57.278Z,9368.00
2018-12-30T11:53:57.246Z,10712.00
2018-12-30T11:54:57.215Z,11352.00
2018-12-30T11:55:57.183Z,11512.00
2018-12-30T11:56:57.152Z,9616.00
2018-12-30T11:57:57.121Z,10652.00
2018-12-30T11:58:57.088Z,11976.00
2018-12-30T11:59:57.058Z,12692.00
2018-12-30T12:00:57.025Z,12104.00
2018-12-30T12:01:56.997Z,10992.00
2018-12-30T12:02:56.964Z,10192.00
2018-12-30T12:03:56.931Z,10816.00
2018-12-30T12:04:56.901Z,11984.00
2018-12-30T12:05:56.870Z,11968.00
2018-12-30T12:06:56.838Z,9536.00
2018-12-30T12:07:56.805Z,9016.00
2018-12-30T12:08:56.776Z,11496.00
2018-12-30T12:09:56.749Z,12252.00
2018-12-30T12:10:56.714Z,12280.00
2018-12-30T12:11:56.681Z,13512.00
2018-12-30T12:12:56.651Z,14316.00
2018-12-30T12:13:56.620Z,12376.00
2018-12-30T12:14:56.589Z,11352.00
2018-12-30T12:15:56.557Z,12660.00
2018-12-30T12:16:56.527Z,11844.00
2018-12-30T12:17:56.498Z,10328.00
2018-12-30T12:18:56.464Z,9828.00
2018-12-30T12:19:56.434Z,8880.00
2018-12-30T12:20:56.403Z,8408.00
2018-12-30T12:21:56.376Z,7608.00
2018-12-30T12:22:56.342Z,6924.00
2018-12-30T12:23:56.330Z,7820.00
2018-12-30T12:24:56.280Z,8916.00
2018-12-30T12:25:56.250Z,8100.00
2018-12-30T12:26:56.217Z,7460.00
2018-12-30T12:27:56.186Z,8072.00
2018-12-30T12:28:56.156Z,7948.00
2018-12-30T12:29:56.124Z,8116.00
2018-12-30T12:30:56.094Z,7424.00
2018-12-30T12:31:56.062Z,7280.00
2018-12-30T12:32:56.032Z,6572.00
2018-12-30T12:33:56.000Z,8400.00
2018-12-30T12:34:55.967Z,8232.00
2018-12-30T12:35:55.936Z,8136.00
2018-12-30T12:36:55.906Z,8284.00
2018-12-30T12:37:55.878Z,7564.00
2018-12-30T12:38:55.842Z,7492.00
2018-12-30T12:39:55.811Z,7784.00
2018-12-30T12:40:55.779Z,7508.00
2018-12-30T12:41:55.748Z,8144.00
2018-12-30T12:42:55.715Z,12024.00